createdAt,value
2019-02-20T00:00:45.588Z,20.62
2019-02-20T00:01:46.703Z,17.82
2019-02-20T00:02:47.837Z,18.70
2019-02-20T00:03:48.952Z,13.08
2019-02-20T00:04:50.070Z,20.68
2019-02-20T00:05:51.443Z,15.78
2019-02-20T00:06:52.635Z,16.85
2019-02-20T00:07:53.749Z,14.85
2019-02-20T00:08:54.867Z,19.73
2019-02-20T00:09:55.977Z,13.03
2019-02-20T00:10:57.106Z,16.37
2019-02-20T00:11:58.224Z,20.50
2019-02-20T00:12:59.349Z,20.32
2019-02-20T00:14:00.472Z,21.93
2019-02-20T00:15:01.591Z,16.87
2019-02-20T00:16:02.704Z,16.45
2019-02-20T00:17:03.823Z,18.57
2019-02-20T00:18:04.943Z,16.90
2019-02-20T00:19:06.062Z,19.90
2019-02-20T00:20:07.240Z,18.02
2019-02-20T00:21:08.433Z,22.70
2019-02-20T00:22:11.448Z,13.18
2019-02-20T00:23:12.574Z,20.05
2019-02-20T00:24:13.700Z,22.90
2019-02-20T00:25:14.808Z,17.17
2019-02-20T00:26:15.932Z,15.80
2019-02-20T00:27:17.049Z,21.68
2019-02-20T00:28:18.168Z,18.02
2019-02-20T00:29:19.285Z,21.75
2019-02-20T00:30:20.432Z,17.25
2019-02-20T00:31:21.557Z,22.73
2019-02-20T00:32:22.669Z,24.90
2019-02-20T00:33:23.781Z,19.85
2019-02-20T00:34:24.898Z,21.77
2019-02-20T00:35:26.024Z,15.08
2019-02-20T00:36:27.141Z,15.83
2019-02-20T00:37:28.258Z,15.53
2019-02-20T00:38:30.265Z,19.23
2019-02-20T00:39:31.384Z,19.62
2019-02-20T00:40:32.744Z,22.17
2019-02-20T00:41:33.881Z,15.43
2019-02-20T00:42:35.005Z,22.07
2019-02-20T00:43:36.716Z,19.12
2019-02-20T00:44:54.832Z,14.43
2019-02-20T00:46:09.986Z,19.17
2019-02-20T00:47:18.778Z,20.25
2019-02-20T00:48:21.800Z,16.48
2019-02-20T00:49:24.829Z,21.33
2019-02-20T00:50:27.838Z,19.65
2019-02-20T00:51:33.480Z,19.50
2019-02-20T00:52:49.642Z,17.27
2019-02-20T00:53:47.014Z,19.60
2019-02-20T00:54:48.129Z,25.10
2019-02-20T00:55:49.333Z,18.57
2019-02-20T00:56:50.524Z,16.00
2019-02-20T00:57:51.985Z,15.20
2019-02-20T00:58:53.186Z,18.62
2019-02-20T00:59:54.313Z,18.75
2019-02-20T01:00:55.426Z,24.52
2019-02-20T01:01:56.559Z,23.22
2019-02-20T01:02:57.667Z,16.50
2019-02-20T01:03:58.882Z,20.68
2019-02-20T01:04:59.996Z,19.57
2019-02-20T01:06:01.106Z,17.67
2019-02-20T01:07:02.324Z,18.85
2019-02-20T01:08:03.545Z,20.10
2019-02-20T01:09:05.261Z,19.12
2019-02-20T01:10:06.975Z,24.30
2019-02-20T01:11:08.098Z,18.75
2019-02-20T01:12:09.311Z,19.55
2019-02-20T01:13:10.712Z,20.50
2019-02-20T01:14:12.016Z,18.77
2019-02-20T01:15:13.228Z,21.00
2019-02-20T01:16:14.350Z,20.82
2019-02-20T01:17:15.756Z,19.67
2019-02-20T01:18:17.192Z,16.25
2019-02-20T01:19:18.555Z,22.80
2019-02-20T01:20:19.672Z,17.25
2019-02-20T01:21:20.785Z,13.45
2019-02-20T01:22:21.921Z,19.57
2019-02-20T01:23:23.029Z,24.15
2019-02-20T01:24:24.136Z,15.63
2019-02-20T01:25:25.248Z,18.55
2019-02-20T01:26:26.384Z,23.65
2019-02-20T01:27:27.497Z,15.90
2019-02-20T01:28:28.612Z,18.12
2019-02-20T01:29:29.737Z,21.75
2019-02-20T01:30:30.855Z,20.62
2019-02-20T01:31:31.973Z,17.07
2019-02-20T01:32:33.489Z,17.07
2019-02-20T01:33:34.836Z,16.55
2019-02-20T01:34:35.949Z,22.10
2019-02-20T01:35:37.065Z,18.27
2019-02-20T01:36:38.427Z,19.48
2019-02-20T01:37:39.533Z,24.07
2019-02-20T01:38:40.650Z,18.85
2019-02-20T01:39:42.021Z,21.68
2019-02-20T01:40:43.166Z,15.50
2019-02-20T01:41:44.279Z,21.27
2019-02-20T01:42:45.721Z,18.90
2019-02-20T01:43:47.161Z,16.73
2019-02-20T01:44:48.280Z,16.48
2019-02-20T01:45:49.399Z,21.12
2019-02-20T01:46:50.528Z,22.48
2019-02-20T01:47:51.633Z,20.72
2019-02-20T01:48:53.500Z,18.60
2019-02-20T01:49:54.608Z,18.02
2019-02-20T01:50:55.812Z,17.92
2019-02-20T01:51:56.946Z,19.20
2019-02-20T01:52:58.062Z,16.45
2019-02-20T01:53:59.180Z,23.32
2019-02-20T01:55:00.544Z,15.83
2019-02-20T01:56:01.665Z,20.27
2019-02-20T01:57:02.918Z,16.35
2019-02-20T01:58:04.038Z,14.50
2019-02-20T01:59:05.149Z,24.90
2019-02-20T02:00:09.561Z,21.90
2019-02-20T02:01:10.918Z,19.15
2019-02-20T02:02:12.051Z,16.02
2019-02-20T02:03:13.170Z,17.80
2019-02-20T02:04:14.541Z,17.80
2019-02-20T02:05:16.046Z,21.85
2019-02-20T02:06:17.277Z,13.83
2019-02-20T02:07:18.404Z,17.32
2019-02-20T02:08:19.517Z,17.73
2019-02-20T02:09:20.629Z,23.87
2019-02-20T02:10:21.757Z,19.70
2019-02-20T02:11:22.866Z,14.83
2019-02-20T02:12:44.113Z,18.90
2019-02-20T02:13:45.234Z,17.55
2019-02-20T02:14:46.350Z,18.92
2019-02-20T02:15:47.776Z,20.82
2019-02-20T02:16:48.889Z,19.15
2019-02-20T02:17:50.008Z,18.23
2019-02-20T02:18:51.129Z,22.55
2019-02-20T02:19:52.520Z,18.98
2019-02-20T02:20:53.955Z,19.62
2019-02-20T02:21:55.092Z,22.00
2019-02-20T02:22:56.225Z,20.92
2019-02-20T02:23:57.769Z,23.20
2019-02-20T02:24:58.885Z,25.23
2019-02-20T02:26:00.001Z,20.95
2019-02-20T02:27:01.112Z,22.75
2019-02-20T02:28:02.243Z,19.55
2019-02-20T02:29:03.364Z,29.25
2019-02-20T02:30:08.562Z,20.95
2019-02-20T02:31:09.996Z,19.48
2019-02-20T02:32:11.437Z,20.32
2019-02-20T02:33:12.820Z,19.90
2019-02-20T02:34:13.928Z,18.17
2019-02-20T02:35:18.316Z,17.25
2019-02-20T02:36:19.442Z,22.35
2019-02-20T02:37:20.894Z,22.98
2019-02-20T02:38:22.017Z,17.62
2019-02-20T02:39:23.128Z,16.23
2019-02-20T02:40:24.246Z,18.00
2019-02-20T02:41:25.624Z,20.30
2019-02-20T02:42:27.242Z,14.80
2019-02-20T02:43:28.357Z,20.30
2019-02-20T02:44:29.776Z,17.05
2019-02-20T02:45:31.380Z,23.32
2019-02-20T02:46:32.824Z,20.40
2019-02-20T02:47:34.373Z,16.07
2019-02-20T02:48:35.511Z,21.85
2019-02-20T02:49:36.644Z,17.30
2019-02-20T02:50:38.114Z,19.17
2019-02-20T02:51:39.234Z,16.90
2019-02-20T02:52:40.645Z,19.40
2019-02-20T02:53:41.808Z,19.98
2019-02-20T02:54:43.231Z,19.32
2019-02-20T02:55:44.348Z,16.35
2019-02-20T02:56:45.805Z,21.90
2019-02-20T02:57:47.245Z,20.97
2019-02-20T02:58:48.356Z,23.85
2019-02-20T02:59:49.469Z,19.42
2019-02-20T03:00:50.584Z,24.15
2019-02-20T03:01:51.691Z,15.53
2019-02-20T03:02:53.113Z,23.22
2019-02-20T03:03:55.121Z,19.55
2019-02-20T03:04:56.316Z,22.15
2019-02-20T03:05:57.436Z,21.42
2019-02-20T03:06:58.864Z,22.20
2019-02-20T03:07:59.998Z,22.40
2019-02-20T03:09:01.409Z,17.27
2019-02-20T03:10:04.425Z,24.65
2019-02-20T03:11:05.632Z,22.50
2019-02-20T03:12:07.017Z,15.40
2019-02-20T03:13:08.435Z,21.05
2019-02-20T03:14:09.557Z,20.25
2019-02-20T03:15:10.763Z,22.15
2019-02-20T03:16:11.873Z,15.50
2019-02-20T03:17:12.984Z,20.57
2019-02-20T03:18:14.118Z,18.65
2019-02-20T03:19:15.228Z,19.40
2019-02-20T03:20:16.337Z,21.70
2019-02-20T03:21:17.453Z,18.37
2019-02-20T03:22:18.552Z,27.02
2019-02-20T03:23:19.681Z,23.05
2019-02-20T03:24:21.097Z,18.87
2019-02-20T03:25:22.264Z,19.65
2019-02-20T03:26:23.440Z,21.37
2019-02-20T03:27:24.907Z,17.12
2019-02-20T03:28:26.340Z,19.35
2019-02-20T03:29:27.466Z,23.80
2019-02-20T03:30:28.605Z,19.55
2019-02-20T03:31:29.942Z,19.52
2019-02-20T03:32:31.393Z,17.00
2019-02-20T03:33:32.933Z,24.50
2019-02-20T03:34:34.545Z,25.65
2019-02-20T03:35:35.912Z,25.68
2019-02-20T03:36:37.020Z,18.80
2019-02-20T03:37:38.134Z,23.42
2019-02-20T03:38:39.262Z,26.15
2019-02-20T03:39:40.380Z,19.67
2019-02-20T03:40:41.484Z,19.12
2019-02-20T03:41:42.597Z,18.95
2019-02-20T03:42:43.713Z,22.07
2019-02-20T03:43:44.851Z,21.73
2019-02-20T03:44:45.962Z,22.80
2019-02-20T03:45:47.082Z,21.45
2019-02-20T03:46:48.193Z,19.17
2019-02-20T03:47:49.612Z,24.40
2019-02-20T03:48:50.746Z,21.12
2019-02-20T03:49:51.849Z,18.30
2019-02-20T03:50:52.956Z,21.95
2019-02-20T03:51:54.069Z,19.17
2019-02-20T03:52:55.498Z,20.60
2019-02-20T03:53:57.421Z,22.85
2019-02-20T03:54:58.596Z,18.77
2019-02-20T03:55:59.713Z,21.37
2019-02-20T03:57:01.124Z,22.60
2019-02-20T03:58:02.362Z,20.27
2019-02-20T03:59:04.056Z,20.95
2019-02-20T04:00:07.923Z,20.02
2019-02-20T04:01:09.031Z,23.15
2019-02-20T04:02:10.140Z,23.98
2019-02-20T04:03:11.528Z,18.77
2019-02-20T04:04:12.644Z,19.12
2019-02-20T04:05:14.004Z,20.85
2019-02-20T04:06:15.105Z,27.93
2019-02-20T04:07:16.212Z,26.75
2019-02-20T04:08:17.320Z,18.62
2019-02-20T04:09:18.697Z,25.60
2019-02-20T04:10:19.805Z,17.95
2019-02-20T04:11:21.166Z,21.82
2019-02-20T04:12:22.284Z,20.75
2019-02-20T04:13:23.400Z,26.85
2019-02-20T04:14:24.804Z,26.85
2019-02-20T04:15:25.922Z,22.77
2019-02-20T04:16:27.385Z,21.37
2019-02-20T04:17:28.495Z,24.18
2019-02-20T04:18:29.605Z,26.85
2019-02-20T04:19:30.723Z,19.57
2019-02-20T04:20:32.060Z,23.05
2019-02-20T04:21:33.442Z,23.35
2019-02-20T04:22:34.891Z,22.85
2019-02-20T04:23:36.005Z,19.02
2019-02-20T04:24:37.124Z,20.70
2019-02-20T04:25:38.228Z,19.62
2019-02-20T04:26:39.349Z,19.40
2019-02-20T04:27:40.467Z,20.15
2019-02-20T04:28:41.892Z,27.77
2019-02-20T04:29:43.022Z,19.62
2019-02-20T04:30:44.469Z,24.75
2019-02-20T04:31:45.913Z,28.17
2019-02-20T04:32:47.025Z,24.23
2019-02-20T04:33:48.131Z,25.08
2019-02-20T04:34:49.263Z,27.82
2019-02-20T04:35:50.647Z,24.23
2019-02-20T04:36:51.769Z,23.18
2019-02-20T04:37:53.426Z,23.73
2019-02-20T04:38:54.542Z,17.40
2019-02-20T04:39:55.665Z,21.65
2019-02-20T04:40:57.124Z,25.85
2019-02-20T04:41:58.242Z,26.35
2019-02-20T04:42:59.344Z,25.10
2019-02-20T04:44:00.449Z,20.35
2019-02-20T04:45:01.596Z,24.55
2019-02-20T04:46:02.913Z,24.87
2019-02-20T04:47:04.030Z,22.27
2019-02-20T04:48:05.398Z,27.07
2019-02-20T04:49:06.513Z,23.32
2019-02-20T04:50:07.940Z,22.98
2019-02-20T04:51:09.525Z,23.32
2019-02-20T04:52:10.630Z,25.30
2019-02-20T04:53:11.740Z,26.70
2019-02-20T04:54:13.820Z,29.87
2019-02-20T04:55:15.102Z,32.35
2019-02-20T04:56:16.219Z,32.00
2019-02-20T04:57:17.329Z,31.17
2019-02-20T04:58:20.041Z,31.73
2019-02-20T04:59:21.619Z,30.60
2019-02-20T05:00:22.741Z,30.75
2019-02-20T05:01:23.854Z,27.50
2019-02-20T05:02:24.967Z,26.20
2019-02-20T05:03:26.076Z,24.25
2019-02-20T05:04:27.185Z,32.90
2019-02-20T05:05:28.302Z,25.88
2019-02-20T05:06:29.410Z,30.32
2019-02-20T05:07:30.777Z,25.92
2019-02-20T05:08:31.886Z,26.75
2019-02-20T05:09:33.004Z,25.85
2019-02-20T05:10:34.125Z,32.75
2019-02-20T05:11:35.230Z,31.23
2019-02-20T05:12:36.361Z,27.45
2019-02-20T05:13:37.460Z,28.95
2019-02-20T05:14:38.579Z,27.98
2019-02-20T05:15:39.964Z,32.08
2019-02-20T05:16:41.165Z,35.95
2019-02-20T05:17:42.274Z,30.88
2019-02-20T05:18:43.409Z,30.25
2019-02-20T05:19:44.601Z,28.23
2019-02-20T05:20:45.732Z,30.45
2019-02-20T05:21:46.841Z,30.23
2019-02-20T05:22:47.957Z,29.60
2019-02-20T05:23:49.317Z,33.92
2019-02-20T05:24:50.438Z,31.95
2019-02-20T05:25:51.549Z,29.18
2019-02-20T05:26:52.920Z,36.80
2019-02-20T05:27:54.212Z,35.30
2019-02-20T05:28:55.446Z,32.15
2019-02-20T05:29:56.838Z,36.42
2019-02-20T05:30:57.959Z,32.33
2019-02-20T05:31:59.068Z,35.33
2019-02-20T05:33:00.544Z,37.05
2019-02-20T05:34:01.649Z,28.55
2019-02-20T05:35:03.299Z,33.48
2019-02-20T05:36:04.397Z,30.75
2019-02-20T05:37:05.503Z,30.48
2019-02-20T05:38:06.617Z,36.93
2019-02-20T05:39:07.725Z,32.63
2019-02-20T05:40:09.698Z,35.68
2019-02-20T05:41:11.111Z,33.00
2019-02-20T05:42:12.213Z,33.83
2019-02-20T05:43:13.622Z,29.63
2019-02-20T05:44:14.854Z,36.55
2019-02-20T05:45:16.050Z,33.53
2019-02-20T05:46:17.162Z,35.30
2019-02-20T05:47:18.349Z,32.63
2019-02-20T05:48:19.700Z,29.40
2019-02-20T05:49:20.827Z,34.00
2019-02-20T05:50:22.009Z,32.95
2019-02-20T05:51:23.136Z,35.10
2019-02-20T05:52:27.657Z,38.00
2019-02-20T05:53:28.811Z,32.15
2019-02-20T05:54:34.477Z,32.63
2019-02-20T05:55:33.398Z,43.13
2019-02-20T05:56:34.504Z,34.10
2019-02-20T05:57:36.489Z,36.10
2019-02-20T05:58:37.731Z,38.17
2019-02-20T05:59:38.951Z,40.80
2019-02-20T06:00:40.450Z,43.38
2019-02-20T06:01:41.889Z,37.20
2019-02-20T06:02:43.013Z,36.10
2019-02-20T06:03:44.469Z,35.38
2019-02-20T06:04:46.000Z,38.95
2019-02-20T06:05:47.130Z,39.38
2019-02-20T06:06:48.259Z,41.77
2019-02-20T06:07:49.716Z,35.50
2019-02-20T06:08:51.082Z,42.30
2019-02-20T06:09:52.189Z,35.52
2019-02-20T06:10:53.318Z,35.88
2019-02-20T06:11:54.439Z,38.05
2019-02-20T06:12:55.549Z,43.75
2019-02-20T06:13:56.721Z,38.83
2019-02-20T06:14:57.895Z,34.88
2019-02-20T06:15:59.060Z,36.60
2019-02-20T06:17:00.197Z,37.53
2019-02-20T06:18:01.652Z,40.52
2019-02-20T06:19:02.769Z,34.63
2019-02-20T06:20:06.389Z,37.35
2019-02-20T06:21:07.586Z,38.60
2019-02-20T06:22:09.056Z,37.53
2019-02-20T06:23:10.184Z,38.38
2019-02-20T06:24:11.296Z,34.53
2019-02-20T06:25:12.427Z,43.25
2019-02-20T06:26:13.644Z,40.00
2019-02-20T06:27:15.023Z,37.85
2019-02-20T06:28:16.472Z,39.00
2019-02-20T06:29:17.587Z,31.30
2019-02-20T06:30:18.705Z,34.25
2019-02-20T06:31:22.431Z,31.33
2019-02-20T06:32:24.222Z,32.00
2019-02-20T06:33:27.505Z,29.80
2019-02-20T06:34:28.637Z,31.20
2019-02-20T06:35:29.752Z,32.13
2019-02-20T06:36:30.873Z,36.33
2019-02-20T06:37:31.982Z,31.37
2019-02-20T06:38:33.099Z,36.85
2019-02-20T06:39:34.221Z,34.80
2019-02-20T06:40:35.334Z,41.83
2019-02-20T06:41:39.081Z,41.42
2019-02-20T06:42:39.918Z,34.15
2019-02-20T06:43:41.024Z,31.90
2019-02-20T06:44:42.377Z,31.50
2019-02-20T06:45:43.490Z,31.50
2019-02-20T06:46:44.615Z,32.70
2019-02-20T06:47:45.725Z,33.63
2019-02-20T06:48:46.831Z,33.10
2019-02-20T06:49:47.955Z,31.62
2019-02-20T06:50:49.433Z,34.85
2019-02-20T06:51:50.551Z,38.80
2019-02-20T06:52:52.064Z,32.23
2019-02-20T06:53:53.248Z,33.38
2019-02-20T06:54:54.638Z,33.53
2019-02-20T06:55:55.749Z,36.93
2019-02-20T06:56:56.869Z,30.32
2019-02-20T06:57:58.074Z,32.88
2019-02-20T06:58:59.184Z,31.93
2019-02-20T07:00:00.904Z,28.60
2019-02-20T07:01:02.139Z,32.03
2019-02-20T07:02:03.692Z,31.15
2019-02-20T07:03:04.805Z,31.93
2019-02-20T07:04:05.978Z,28.12
2019-02-20T07:05:29.175Z,31.60
2019-02-20T07:06:42.761Z,31.68
2019-02-20T07:07:50.374Z,31.57
2019-02-20T07:09:12.372Z,25.77
2019-02-20T07:10:38.435Z,29.18
2019-02-20T07:11:43.511Z,28.80
2019-02-20T07:12:51.278Z,28.52
2019-02-20T07:14:28.249Z,32.63
2019-02-20T07:15:36.063Z,29.00
2019-02-20T07:16:50.095Z,32.10
2019-02-20T07:18:19.009Z,32.30
2019-02-20T07:19:29.960Z,28.90
2019-02-20T07:20:43.851Z,29.02
2019-02-20T07:21:51.573Z,30.80
2019-02-20T07:22:56.494Z,36.42
2019-02-20T07:24:22.283Z,36.42
2019-02-20T07:25:27.196Z,36.45
2019-02-20T07:26:38.100Z,36.90
2019-02-20T07:30:20.794Z,34.05
2019-02-20T07:31:22.208Z,37.67
2019-02-20T07:32:23.649Z,33.95
2019-02-20T07:33:25.101Z,32.08
2019-02-20T07:34:26.528Z,31.48
2019-02-20T07:35:27.979Z,30.85
2019-02-20T07:36:29.112Z,30.05
2019-02-20T07:37:30.261Z,31.12
2019-02-20T07:38:31.377Z,29.95
2019-02-20T07:39:32.500Z,40.33
2019-02-20T07:40:33.646Z,32.83
2019-02-20T07:41:35.176Z,40.75
2019-02-20T07:42:36.289Z,28.85
2019-02-20T07:43:37.396Z,27.37
2019-02-20T07:44:38.529Z,29.25
2019-02-20T07:45:39.722Z,33.33
2019-02-20T07:46:40.853Z,30.02
2019-02-20T07:47:41.964Z,29.12
2019-02-20T07:48:43.408Z,27.90
2019-02-20T07:49:44.529Z,30.05
2019-02-20T07:50:45.642Z,32.10
2019-02-20T07:51:46.777Z,30.97
2019-02-20T07:52:47.888Z,24.77
2019-02-20T07:53:49.012Z,30.05
2019-02-20T07:54:50.123Z,29.65
2019-02-20T07:55:51.251Z,36.30
2019-02-20T07:56:52.368Z,29.63
2019-02-20T07:57:53.487Z,32.48
2019-02-20T07:58:54.606Z,31.02
2019-02-20T07:59:55.714Z,35.43
2019-02-20T08:00:56.827Z,36.10
2019-02-20T08:01:57.943Z,33.02
2019-02-20T08:02:59.073Z,36.73
2019-02-20T08:04:00.186Z,33.40
2019-02-20T08:05:01.295Z,32.53
2019-02-20T08:06:02.397Z,35.08
2019-02-20T08:07:03.520Z,29.37
2019-02-20T08:08:04.640Z,34.83
2019-02-20T08:09:05.781Z,34.33
2019-02-20T08:10:09.182Z,34.70
2019-02-20T08:11:10.297Z,32.13
2019-02-20T08:12:11.427Z,32.40
2019-02-20T08:13:12.538Z,37.25
2019-02-20T08:14:13.658Z,31.33
2019-02-20T08:15:14.848Z,26.27
2019-02-20T08:16:15.968Z,35.28
2019-02-20T08:17:17.096Z,28.38
2019-02-20T08:18:18.200Z,29.30
2019-02-20T08:19:21.665Z,31.93
2019-02-20T08:20:22.451Z,31.10
2019-02-20T08:21:23.564Z,30.60
2019-02-20T08:22:24.692Z,26.97
2019-02-20T08:23:25.803Z,30.20
2019-02-20T08:24:26.913Z,28.47
2019-02-20T08:25:28.033Z,32.80
2019-02-20T08:26:29.155Z,24.95
2019-02-20T08:27:30.281Z,27.30
2019-02-20T08:28:31.396Z,30.55
2019-02-20T08:29:32.742Z,29.32
2019-02-20T08:30:33.852Z,34.85
2019-02-20T08:31:34.966Z,29.72
2019-02-20T08:32:36.096Z,29.55
2019-02-20T08:33:37.212Z,35.10
2019-02-20T08:34:38.738Z,31.40
2019-02-20T08:35:39.850Z,27.80
2019-02-20T08:36:40.955Z,29.37
2019-02-20T08:37:42.521Z,25.62
2019-02-20T08:38:43.948Z,29.80
2019-02-20T08:39:45.115Z,32.08
2019-02-20T08:40:46.277Z,27.65
2019-02-20T08:41:47.433Z,26.93
2019-02-20T08:42:48.549Z,30.12
2019-02-20T08:43:49.661Z,31.82
2019-02-20T08:44:50.779Z,28.50
2019-02-20T08:45:51.900Z,30.25
2019-02-20T08:46:53.030Z,28.42
2019-02-20T08:47:54.231Z,28.12
2019-02-20T08:48:55.412Z,33.33
2019-02-20T08:49:56.516Z,32.03
2019-02-20T08:50:57.631Z,30.57
2019-02-20T08:51:58.745Z,33.30
2019-02-20T08:53:00.229Z,30.20
2019-02-20T08:54:01.357Z,29.75
2019-02-20T08:55:04.866Z,33.20
2019-02-20T08:56:06.005Z,26.02
2019-02-20T08:57:07.121Z,29.35
2019-02-20T08:58:08.245Z,24.43
2019-02-20T08:59:09.365Z,31.87
2019-02-20T09:00:12.364Z,25.30
2019-02-20T09:01:13.476Z,24.80
2019-02-20T09:02:14.597Z,23.02
2019-02-20T09:03:15.726Z,26.17
2019-02-20T09:04:16.874Z,30.37
2019-02-20T09:05:18.051Z,28.62
2019-02-20T09:06:19.465Z,26.15
2019-02-20T09:07:22.076Z,25.27
2019-02-20T09:08:23.214Z,29.07
2019-02-20T09:09:24.316Z,25.43
2019-02-20T09:10:25.451Z,29.18
2019-02-20T09:11:26.556Z,28.00
2019-02-20T09:12:27.698Z,27.48
2019-02-20T09:13:28.899Z,28.23
2019-02-20T09:14:29.993Z,31.45
2019-02-20T09:15:31.113Z,29.98
2019-02-20T09:16:32.226Z,26.55
2019-02-20T09:17:33.642Z,27.27
2019-02-20T09:18:35.123Z,28.30
2019-02-20T09:19:36.261Z,28.32
2019-02-20T09:20:37.370Z,31.33
2019-02-20T09:21:38.489Z,26.30
2019-02-20T09:22:39.732Z,25.65
2019-02-20T09:23:41.950Z,23.55
2019-02-20T09:24:43.162Z,24.55
2019-02-20T09:25:44.270Z,28.25
2019-02-20T09:26:45.616Z,24.63
2019-02-20T09:27:46.734Z,30.92
2019-02-20T09:28:47.849Z,22.82
2019-02-20T09:29:48.956Z,21.85
2019-02-20T09:30:50.072Z,27.73
2019-02-20T09:31:51.173Z,28.12
2019-02-20T09:32:52.284Z,23.18
2019-02-20T09:33:53.414Z,22.42
2019-02-20T09:34:54.580Z,25.15
2019-02-20T09:35:55.697Z,25.72
2019-02-20T09:36:56.809Z,26.48
2019-02-20T09:37:57.980Z,26.62
2019-02-20T09:39:19.696Z,26.50
2019-02-20T09:40:20.808Z,25.17
2019-02-20T09:41:21.931Z,21.12
2019-02-20T09:42:23.374Z,23.40
2019-02-20T09:43:24.545Z,26.27
2019-02-20T09:44:26.878Z,27.13
2019-02-20T09:45:27.989Z,27.90
2019-02-20T09:46:29.105Z,28.90
2019-02-20T09:47:30.479Z,22.90
2019-02-20T09:48:31.588Z,23.22
2019-02-20T09:49:32.722Z,25.97
2019-02-20T09:50:33.837Z,22.48
2019-02-20T09:51:34.944Z,25.82
2019-02-20T09:52:36.060Z,19.55
2019-02-20T09:53:37.283Z,30.12
2019-02-20T09:54:38.477Z,26.33
2019-02-20T09:55:39.589Z,21.12
2019-02-20T09:56:40.701Z,24.05
2019-02-20T09:57:41.812Z,21.23
2019-02-20T09:58:42.928Z,20.43
2019-02-20T09:59:44.150Z,24.45
2019-02-20T10:00:45.270Z,26.55
2019-02-20T10:01:46.380Z,21.52
2019-02-20T10:02:47.548Z,23.98
2019-02-20T10:03:48.697Z,22.27
2019-02-20T10:04:49.829Z,22.73
2019-02-20T10:05:50.941Z,20.05
2019-02-20T10:06:52.060Z,22.87
2019-02-20T10:07:53.233Z,27.25
2019-02-20T10:08:54.388Z,19.98
2019-02-20T10:09:55.810Z,26.20
2019-02-20T10:10:57.264Z,18.92
2019-02-20T10:11:58.382Z,21.42
2019-02-20T10:12:59.494Z,23.87
2019-02-20T10:14:00.610Z,25.08
2019-02-20T10:15:04.645Z,22.95
2019-02-20T10:16:05.763Z,27.05
2019-02-20T10:17:06.874Z,22.98
2019-02-20T10:18:07.990Z,20.40
2019-02-20T10:19:09.097Z,25.97
2019-02-20T10:20:10.228Z,20.65
2019-02-20T10:21:11.345Z,22.62
2019-02-20T10:22:12.467Z,24.98
2019-02-20T10:23:13.593Z,19.05
2019-02-20T10:24:14.724Z,23.83
2019-02-20T10:25:15.928Z,19.92
2019-02-20T10:26:17.042Z,22.27
2019-02-20T10:27:18.153Z,21.77
2019-02-20T10:28:19.270Z,18.32
2019-02-20T10:29:20.390Z,22.35
2019-02-20T10:30:21.518Z,19.42
2019-02-20T10:31:22.731Z,17.52
2019-02-20T10:32:23.913Z,22.22
2019-02-20T10:33:25.041Z,21.52
2019-02-20T10:34:26.153Z,24.82
2019-02-20T10:35:27.280Z,20.62
2019-02-20T10:36:28.388Z,17.37
2019-02-20T10:37:29.523Z,20.37
2019-02-20T10:38:30.638Z,20.68
2019-02-20T10:39:32.149Z,20.70
2019-02-20T10:40:33.675Z,19.67
2019-02-20T10:41:34.793Z,21.70
2019-02-20T10:42:35.924Z,23.70
2019-02-20T10:43:37.405Z,21.45
2019-02-20T10:44:38.581Z,20.37
2019-02-20T10:45:39.791Z,18.82
2019-02-20T10:46:40.900Z,17.62
2019-02-20T10:47:42.022Z,19.92
2019-02-20T10:48:43.132Z,22.15
2019-02-20T10:49:44.541Z,19.07
2019-02-20T10:50:47.692Z,17.45
2019-02-20T10:51:48.816Z,22.37
2019-02-20T10:52:49.938Z,19.55
2019-02-20T10:53:51.048Z,24.25
2019-02-20T10:54:57.712Z,19.40
2019-02-20T10:55:55.817Z,21.73
2019-02-20T10:56:56.929Z,21.30
2019-02-20T10:57:58.046Z,22.42
2019-02-20T10:58:59.256Z,24.43
2019-02-20T11:00:00.497Z,22.05
2019-02-20T11:01:01.704Z,16.15
2019-02-20T11:02:02.924Z,21.90
2019-02-20T11:03:04.036Z,21.20
2019-02-20T11:04:05.147Z,14.95
2019-02-20T11:05:06.655Z,17.37
2019-02-20T11:06:07.836Z,19.17
2019-02-20T11:07:08.952Z,20.92
2019-02-20T11:08:10.069Z,17.73
2019-02-20T11:09:11.388Z,24.23
2019-02-20T11:10:12.524Z,16.45
2019-02-20T11:11:13.639Z,15.88
2019-02-20T11:12:14.752Z,17.48
2019-02-20T11:13:15.861Z,19.48
2019-02-20T11:14:16.965Z,17.42
2019-02-20T11:15:18.131Z,16.85
2019-02-20T11:16:19.236Z,17.82
2019-02-20T11:17:20.352Z,18.45
2019-02-20T11:18:21.459Z,19.55
2019-02-20T11:19:22.572Z,20.17
2019-02-20T11:20:23.709Z,20.30
2019-02-20T11:21:24.832Z,13.83
2019-02-20T11:22:26.085Z,18.10
2019-02-20T11:23:27.323Z,16.95
2019-02-20T11:24:28.449Z,15.20
2019-02-20T11:25:31.235Z,15.23
2019-02-20T11:26:32.617Z,13.35
2019-02-20T11:27:33.751Z,16.45
2019-02-20T11:28:34.855Z,19.52
2019-02-20T11:29:35.970Z,17.62
2019-02-20T11:30:37.103Z,17.37
2019-02-20T11:31:38.555Z,14.15
2019-02-20T11:32:39.668Z,15.28
2019-02-20T11:33:40.785Z,13.55
2019-02-20T11:34:41.900Z,16.25
2019-02-20T11:35:43.033Z,13.55
2019-02-20T11:36:44.143Z,13.20
2019-02-20T11:37:45.324Z,15.98
2019-02-20T11:38:46.469Z,20.32
2019-02-20T11:39:47.580Z,14.73
2019-02-20T11:40:48.714Z,21.27
2019-02-20T11:41:49.816Z,17.85
2019-02-20T11:42:50.936Z,17.35
2019-02-20T11:43:52.087Z,19.17
2019-02-20T11:44:53.209Z,15.78
2019-02-20T11:45:54.731Z,16.67
2019-02-20T11:46:55.853Z,14.60
2019-02-20T11:47:56.975Z,15.00
2019-02-20T11:48:58.441Z,16.07
2019-02-20T11:49:59.576Z,19.45
2019-02-20T11:51:00.707Z,10.18
2019-02-20T11:52:01.821Z,18.62
2019-02-20T11:53:03.453Z,15.70
2019-02-20T11:54:04.566Z,13.13
2019-02-20T11:55:10.357Z,16.97
2019-02-20T11:56:12.308Z,15.55
2019-02-20T11:57:13.999Z,17.05
2019-02-20T11:58:15.133Z,16.35
2019-02-20T11:59:16.260Z,14.75
2019-02-20T12:00:17.672Z,15.20
2019-02-20T12:01:18.812Z,13.45
2019-02-20T12:02:19.949Z,15.05
2019-02-20T12:03:21.065Z,15.35
2019-02-20T12:04:22.174Z,13.80
2019-02-20T12:05:23.285Z,15.10
2019-02-20T12:06:24.409Z,19.15
2019-02-20T12:07:25.523Z,15.78
2019-02-20T12:08:26.640Z,14.75
2019-02-20T12:09:27.814Z,15.15
2019-02-20T12:10:28.976Z,13.55
2019-02-20T12:11:30.568Z,14.68
2019-02-20T12:12:31.747Z,14.45
2019-02-20T12:13:32.860Z,13.10
2019-02-20T12:14:33.982Z,15.38
2019-02-20T12:15:35.099Z,17.90
2019-02-20T12:16:36.214Z,11.22
2019-02-20T12:17:37.324Z,15.63
2019-02-20T12:18:38.433Z,15.70
2019-02-20T12:19:39.546Z,17.95
2019-02-20T12:20:40.658Z,18.42
2019-02-20T12:21:41.784Z,13.62
2019-02-20T12:22:42.905Z,17.40
2019-02-20T12:23:44.021Z,19.23
2019-02-20T12:24:45.140Z,15.88
2019-02-20T12:25:46.584Z,13.75
2019-02-20T12:26:47.708Z,14.20
2019-02-20T12:27:48.824Z,13.18
2019-02-20T12:28:49.923Z,15.95
2019-02-20T12:29:51.038Z,14.13
2019-02-20T12:30:52.153Z,25.32
2019-02-20T12:31:53.360Z,17.87
2019-02-20T12:32:54.462Z,12.88
2019-02-20T12:33:55.573Z,15.20
2019-02-20T12:34:56.681Z,17.60
2019-02-20T12:35:58.104Z,14.53
2019-02-20T12:36:59.231Z,20.88
2019-02-20T12:38:00.349Z,14.25
2019-02-20T12:39:01.488Z,17.20
2019-02-20T12:40:05.232Z,11.05
2019-02-20T12:41:06.425Z,16.20
2019-02-20T12:42:07.539Z,18.40
2019-02-20T12:43:08.664Z,14.30
2019-02-20T12:44:09.781Z,14.43
2019-02-20T12:45:10.891Z,14.65
2019-02-20T12:46:12.014Z,17.23
2019-02-20T12:47:13.198Z,15.53
2019-02-20T12:48:14.378Z,15.70
2019-02-20T12:49:15.484Z,13.53
2019-02-20T12:50:16.609Z,13.10
2019-02-20T12:51:17.736Z,15.55
2019-02-20T12:52:18.856Z,13.00
2019-02-20T12:53:20.060Z,14.40
2019-02-20T12:54:21.192Z,13.22
2019-02-20T12:55:22.552Z,17.37
2019-02-20T12:56:23.668Z,13.78
2019-02-20T12:57:24.890Z,14.53
2019-02-20T12:58:25.995Z,16.12
2019-02-20T12:59:27.114Z,14.33
2019-02-20T13:00:28.230Z,13.70
2019-02-20T13:01:29.612Z,11.80
2019-02-20T13:02:30.741Z,12.98
2019-02-20T13:03:32.164Z,14.47
2019-02-20T13:04:33.351Z,17.90
2019-02-20T13:05:34.514Z,14.98
2019-02-20T13:06:35.629Z,14.18
2019-02-20T13:07:36.764Z,17.00
2019-02-20T13:08:37.876Z,17.80
2019-02-20T13:09:38.989Z,10.63
2019-02-20T13:10:40.108Z,16.57
2019-02-20T13:11:41.238Z,16.02
2019-02-20T13:12:42.690Z,15.55
2019-02-20T13:13:43.805Z,15.30
2019-02-20T13:14:44.920Z,16.07
2019-02-20T13:15:46.044Z,16.75
2019-02-20T13:16:47.390Z,17.30
2019-02-20T13:17:48.512Z,17.05